Аэропорт
Междунаро́дный аэропо́рт То́кио (RJTT)

 RJTT / HND

Japan
JP-13
Токио
 35.55230, 139.78000  / 35 ft

 RJTT 181930Z 33006KT 290V020 9999 FEW012 SCT/// 26/24 Q1009 NOSIG
 TAF RJTT 181105Z 1812/1918 22010KT 9999 FEW010 SCT015 BECMG 1815/1817 35006KT TEMPO 1820/1900 FEW005 BKN008 BECMG 1900/1903 08010KT BECMG 1912/1915 34012KT

2020 © VATRUS division (Privacy Policy)